createdAt,value
2022-10-07T00:00:01.796Z,18.54
2022-10-07T00:02:28.959Z,18.54
2022-10-07T00:04:56.063Z,18.54
2022-10-07T00:07:23.110Z,18.54
2022-10-07T00:09:50.081Z,18.52
2022-10-07T00:12:17.194Z,18.51
2022-10-07T00:14:44.206Z,18.49
2022-10-07T00:17:11.216Z,18.45
2022-10-07T00:19:38.227Z,18.45
2022-10-07T00:22:05.262Z,18.44
2022-10-07T00:24:32.288Z,18.45
2022-10-07T00:26:59.296Z,18.43
2022-10-07T00:29:26.289Z,18.42
2022-10-07T00:31:57.243Z,18.39
2022-10-07T00:34:24.465Z,18.39
2022-10-07T00:36:51.668Z,18.35
2022-10-07T00:39:18.877Z,18.33
2022-10-07T00:41:50.499Z,18.33
2022-10-07T00:44:32.490Z,18.32
2022-10-07T00:47:00.180Z,18.35
2022-10-07T00:49:29.818Z,18.33
2022-10-07T00:51:57.482Z,18.34
2022-10-07T00:54:24.381Z,18.33
2022-10-07T00:56:51.400Z,18.33
2022-10-07T00:59:18.496Z,18.32
2022-10-07T01:01:45.450Z,18.30
2022-10-07T01:04:12.850Z,18.28
2022-10-07T01:06:39.825Z,18.25
2022-10-07T01:09:28.301Z,18.25
2022-10-07T01:12:17.545Z,18.22
2022-10-07T01:15:25.316Z,18.19
2022-10-07T01:18:24.448Z,18.16
2022-10-07T01:21:34.899Z,18.15
2022-10-07T01:24:48.911Z,18.13
2022-10-07T01:27:17.059Z,18.09
2022-10-07T01:29:56.249Z,18.06
2022-10-07T01:32:39.581Z,18.07
2022-10-07T01:35:13.777Z,18.06
2022-10-07T01:37:43.709Z,18.08
2022-10-07T01:40:14.180Z,18.10
2022-10-07T01:42:41.080Z,18.11
2022-10-07T01:45:09.535Z,18.12
2022-10-07T01:47:36.575Z,18.11
2022-10-07T01:50:11.335Z,18.09
2022-10-07T01:53:01.729Z,18.06
2022-10-07T01:55:40.776Z,18.03
2022-10-07T01:58:41.394Z,18.01
2022-10-07T02:01:26.781Z,17.99
2022-10-07T02:04:15.101Z,17.97
2022-10-07T02:07:14.170Z,17.95
2022-10-07T02:10:05.739Z,17.94
2022-10-07T02:12:50.701Z,17.92
2022-10-07T02:15:21.875Z,17.91
2022-10-07T02:17:59.200Z,17.87
2022-10-07T02:20:28.670Z,17.89
2022-10-07T02:22:56.611Z,17.88
2022-10-07T02:25:23.710Z,17.87
2022-10-07T02:27:52.071Z,17.90
2022-10-07T02:30:19.733Z,17.90
2022-10-07T02:32:53.523Z,17.90
2022-10-07T02:35:33.377Z,17.91
2022-10-07T02:38:01.842Z,17.90
2022-10-07T02:40:34.941Z,17.86
2022-10-07T02:43:12.272Z,17.84
2022-10-07T02:46:01.907Z,17.81
2022-10-07T02:48:32.556Z,17.81
2022-10-07T02:51:01.150Z,17.81
2022-10-07T02:53:28.628Z,17.77
2022-10-07T02:55:55.591Z,17.77
2022-10-07T02:58:25.751Z,17.77
2022-10-07T03:00:55.853Z,17.75
2022-10-07T03:03:23.437Z,17.75
2022-10-07T03:05:50.571Z,17.72
2022-10-07T03:08:17.539Z,17.70
2022-10-07T03:10:44.443Z,17.69
2022-10-07T03:13:11.435Z,17.67
2022-10-07T03:15:42.364Z,17.67
2022-10-07T03:18:26.777Z,17.67
2022-10-07T03:20:55.634Z,17.67
2022-10-07T03:23:25.590Z,17.67
2022-10-07T03:25:53.749Z,17.68
2022-10-07T03:28:21.454Z,17.66
2022-10-07T03:30:49.163Z,17.64
2022-10-07T03:33:16.715Z,17.64
2022-10-07T03:35:43.765Z,17.62
2022-10-07T03:38:10.959Z,17.62
2022-10-07T03:40:38.506Z,17.60
2022-10-07T03:43:06.061Z,17.59
2022-10-07T03:45:33.048Z,17.58
2022-10-07T03:48:00.088Z,17.55
2022-10-07T03:50:27.158Z,17.56
2022-10-07T03:52:54.101Z,17.54
2022-10-07T03:55:20.998Z,17.52
2022-10-07T03:57:52.557Z,17.49
2022-10-07T04:00:23.515Z,17.50
2022-10-07T04:02:50.620Z,17.50
2022-10-07T04:05:18.141Z,17.50
2022-10-07T04:07:46.195Z,17.52
2022-10-07T04:10:15.469Z,17.52
2022-10-07T04:12:42.794Z,17.53
2022-10-07T04:15:13.977Z,17.50
2022-10-07T04:17:41.715Z,17.50
2022-10-07T04:20:09.218Z,17.52
2022-10-07T04:22:36.858Z,17.53
2022-10-07T04:25:23.519Z,17.53
2022-10-07T04:27:56.942Z,17.52
2022-10-07T04:30:24.950Z,17.51
2022-10-07T04:32:51.949Z,17.49
2022-10-07T04:35:19.765Z,17.48
2022-10-07T04:37:50.219Z,17.47
2022-10-07T04:40:17.414Z,17.44
2022-10-07T04:43:02.700Z,17.41
2022-10-07T04:45:29.650Z,17.39
2022-10-07T04:47:56.649Z,17.38
2022-10-07T04:50:23.564Z,17.37
2022-10-07T04:52:50.497Z,17.37
2022-10-07T04:55:17.450Z,17.39
2022-10-07T04:57:44.636Z,17.38
2022-10-07T05:00:11.824Z,17.39
2022-10-07T05:02:38.821Z,17.37
2022-10-07T05:05:06.187Z,17.36
2022-10-07T05:07:33.122Z,17.34
2022-10-07T05:10:00.012Z,17.32
2022-10-07T05:12:27.713Z,17.31
2022-10-07T05:14:54.646Z,17.31
2022-10-07T05:17:21.876Z,17.30
2022-10-07T05:19:48.917Z,17.31
2022-10-07T05:22:15.873Z,17.30
2022-10-07T05:24:42.810Z,17.29
2022-10-07T05:27:09.819Z,17.28
2022-10-07T05:29:36.880Z,17.27
2022-10-07T05:32:05.219Z,17.27
2022-10-07T05:34:32.347Z,17.24
2022-10-07T05:36:59.677Z,17.23
2022-10-07T05:39:26.595Z,17.25
2022-10-07T05:41:53.520Z,17.25
2022-10-07T05:44:20.502Z,17.27
2022-10-07T05:46:47.451Z,17.29
2022-10-07T05:49:14.382Z,17.29
2022-10-07T05:51:41.539Z,17.28
2022-10-07T05:54:08.766Z,17.30
2022-10-07T05:56:38.258Z,17.33
2022-10-07T05:59:05.207Z,17.34
2022-10-07T06:01:32.224Z,17.32
2022-10-07T06:03:59.183Z,17.30
2022-10-07T06:06:26.277Z,17.28
2022-10-07T06:08:53.458Z,17.27
2022-10-07T06:11:39.298Z,17.26
2022-10-07T06:14:06.393Z,17.25
2022-10-07T06:16:33.497Z,17.24
2022-10-07T06:19:00.516Z,17.24
2022-10-07T06:21:28.386Z,17.24
2022-10-07T06:23:56.329Z,17.23
2022-10-07T06:26:23.354Z,17.22
2022-10-07T06:28:50.580Z,17.22
2022-10-07T06:31:22.689Z,17.23
2022-10-07T06:33:50.435Z,17.25
2022-10-07T06:36:17.569Z,17.27
2022-10-07T06:38:45.916Z,17.27
2022-10-07T06:41:12.912Z,17.29
2022-10-07T06:43:39.856Z,17.30
2022-10-07T06:46:07.506Z,17.29
2022-10-07T06:48:34.999Z,17.29
2022-10-07T06:51:06.250Z,17.30
2022-10-07T06:53:33.466Z,17.31
2022-10-07T06:56:03.708Z,17.31
2022-10-07T06:58:30.810Z,17.33
2022-10-07T07:00:58.704Z,17.33
2022-10-07T07:03:25.856Z,17.35
2022-10-07T07:05:54.635Z,17.37
2022-10-07T07:08:23.395Z,17.35
2022-10-07T07:10:50.347Z,17.38
2022-10-07T07:13:18.262Z,17.40
2022-10-07T07:15:57.553Z,17.38
2022-10-07T07:18:24.809Z,17.37
2022-10-07T07:20:52.030Z,17.39
2022-10-07T07:23:19.371Z,17.42
2022-10-07T07:25:46.542Z,17.46
2022-10-07T07:28:16.426Z,17.46
2022-10-07T07:30:43.426Z,17.49
2022-10-07T07:33:10.395Z,17.54
2022-10-07T07:35:41.634Z,17.56
2022-10-07T07:38:08.912Z,17.58
2022-10-07T07:40:39.221Z,17.59
2022-10-07T07:43:06.730Z,17.62
2022-10-07T07:45:36.968Z,17.63
2022-10-07T07:48:04.268Z,17.65
2022-10-07T07:50:31.226Z,17.66
2022-10-07T07:53:00.335Z,17.68
2022-10-07T07:55:27.336Z,17.70
2022-10-07T07:57:54.290Z,17.71
2022-10-07T08:00:21.322Z,17.72
2022-10-07T08:02:48.957Z,17.73
2022-10-07T08:05:18.019Z,17.75
2022-10-07T08:07:48.616Z,17.76
2022-10-07T08:10:15.839Z,17.77
2022-10-07T08:12:42.777Z,17.79
2022-10-07T08:15:11.016Z,17.80
2022-10-07T08:17:37.940Z,17.82
2022-10-07T08:20:05.130Z,17.83
2022-10-07T08:22:32.091Z,17.84
2022-10-07T08:25:00.438Z,17.86
2022-10-07T08:27:28.430Z,17.87
2022-10-07T08:29:55.445Z,17.87
2022-10-07T08:32:22.386Z,17.88
2022-10-07T08:34:49.330Z,17.88
2022-10-07T08:37:16.330Z,17.88
2022-10-07T08:39:43.289Z,17.89
2022-10-07T08:42:15.416Z,17.89
2022-10-07T08:44:43.731Z,17.90
2022-10-07T08:47:49.144Z,17.91
2022-10-07T08:50:39.763Z,17.92
2022-10-07T08:53:08.724Z,17.92
2022-10-07T08:55:55.899Z,17.92
2022-10-07T08:58:41.102Z,17.93
2022-10-07T09:01:29.523Z,17.94
2022-10-07T09:04:19.454Z,17.94
2022-10-07T09:06:52.727Z,17.94
2022-10-07T09:09:22.579Z,17.95
2022-10-07T09:11:49.658Z,17.95
2022-10-07T09:14:31.223Z,17.96
2022-10-07T09:17:02.873Z,17.97
2022-10-07T09:19:45.493Z,17.96
2022-10-07T09:22:32.028Z,17.98
2022-10-07T09:25:18.019Z,17.99
2022-10-07T09:27:45.150Z,17.98
2022-10-07T09:30:15.481Z,18.00
2022-10-07T09:32:54.539Z,17.99
2022-10-07T09:35:27.197Z,18.00
2022-10-07T09:38:09.671Z,17.99
2022-10-07T09:40:58.007Z,18.00
2022-10-07T09:43:25.165Z,18.00
2022-10-07T09:45:52.147Z,18.00
2022-10-07T09:48:33.435Z,18.00
2022-10-07T09:51:16.893Z,18.01
2022-10-07T09:54:19.694Z,18.02
2022-10-07T09:56:47.081Z,18.02
2022-10-07T09:59:17.794Z,18.03
2022-10-07T10:01:50.813Z,18.03
2022-10-07T10:04:19.380Z,18.03
2022-10-07T10:06:50.055Z,18.02
2022-10-07T10:09:22.840Z,18.04
2022-10-07T10:12:00.966Z,18.05
2022-10-07T10:14:36.894Z,18.05
2022-10-07T10:17:04.700Z,18.05
2022-10-07T10:19:36.446Z,18.05
2022-10-07T10:22:04.373Z,18.06
2022-10-07T10:24:49.829Z,18.07
2022-10-07T10:27:21.177Z,18.07
2022-10-07T10:29:57.222Z,18.07
2022-10-07T10:32:44.094Z,18.09
2022-10-07T10:35:14.243Z,18.09
2022-10-07T10:37:41.078Z,18.10
2022-10-07T10:40:34.916Z,18.11
2022-10-07T10:43:07.451Z,18.11
2022-10-07T10:46:16.178Z,18.10
2022-10-07T10:48:44.946Z,18.11
2022-10-07T10:51:32.261Z,18.12
2022-10-07T10:54:22.394Z,18.13
2022-10-07T10:56:54.337Z,18.13
2022-10-07T10:59:43.261Z,18.13
2022-10-07T11:02:29.736Z,18.12
2022-10-07T11:05:04.604Z,18.11
2022-10-07T11:07:39.633Z,18.12
2022-10-07T11:10:28.333Z,18.13
2022-10-07T11:12:59.596Z,18.13
2022-10-07T11:15:37.455Z,18.13
2022-10-07T11:18:11.354Z,18.14
2022-10-07T11:20:44.410Z,18.15
2022-10-07T11:23:27.184Z,18.15
2022-10-07T11:26:18.870Z,18.17
2022-10-07T11:28:45.984Z,18.17
2022-10-07T11:31:40.454Z,18.17
2022-10-07T11:34:12.679Z,18.18
2022-10-07T11:36:40.232Z,18.19
2022-10-07T11:39:08.739Z,18.19
2022-10-07T11:41:42.248Z,18.20
2022-10-07T11:44:14.300Z,18.22
2022-10-07T11:46:41.596Z,18.23
2022-10-07T11:49:11.541Z,18.24
2022-10-07T11:51:41.281Z,18.24
2022-10-07T11:54:09.767Z,18.25
2022-10-07T11:56:49.549Z,18.26
2022-10-07T11:59:42.904Z,18.27
2022-10-07T12:02:28.473Z,18.27
2022-10-07T12:04:56.174Z,18.29
2022-10-07T12:07:35.203Z,18.30
2022-10-07T12:10:05.247Z,18.31
2022-10-07T12:12:47.815Z,18.32
2022-10-07T12:15:27.307Z,18.34
2022-10-07T12:18:17.447Z,18.35
2022-10-07T12:20:58.867Z,18.37
2022-10-07T12:23:26.208Z,18.38
2022-10-07T12:26:03.512Z,18.40
2022-10-07T12:28:42.635Z,18.43
2022-10-07T12:31:15.422Z,18.44
2022-10-07T12:33:57.726Z,18.46
2022-10-07T12:36:28.309Z,18.49
2022-10-07T12:38:58.652Z,18.50
2022-10-07T12:41:42.883Z,18.53
2022-10-07T12:44:33.690Z,18.55
2022-10-07T12:47:13.766Z,18.56
2022-10-07T12:49:50.390Z,18.60
2022-10-07T12:52:20.257Z,18.61
2022-10-07T12:54:52.153Z,18.64
2022-10-07T12:57:21.219Z,18.66
2022-10-07T13:00:03.269Z,18.68
2022-10-07T13:02:40.295Z,18.71
2022-10-07T13:05:31.647Z,18.73
2022-10-07T13:08:20.076Z,18.77
2022-10-07T13:10:56.407Z,18.80
2022-10-07T13:13:31.128Z,18.84
2022-10-07T13:16:22.618Z,18.87
2022-10-07T13:19:18.756Z,18.91
2022-10-07T13:22:13.919Z,18.94
2022-10-07T13:24:42.331Z,18.98
2022-10-07T13:27:09.892Z,19.00
2022-10-07T13:29:36.839Z,19.01
2022-10-07T13:32:17.425Z,19.05
2022-10-07T13:34:46.542Z,19.07
2022-10-07T13:37:42.208Z,19.08
2022-10-07T13:40:25.978Z,19.11
2022-10-07T13:42:57.452Z,19.13
2022-10-07T13:45:24.414Z,19.13
2022-10-07T13:47:51.432Z,19.15
2022-10-07T13:50:22.940Z,19.17
2022-10-07T13:52:49.836Z,19.18
2022-10-07T13:55:33.783Z,19.21
2022-10-07T13:58:03.242Z,19.23
2022-10-07T14:00:30.683Z,19.24
2022-10-07T14:02:57.688Z,19.26
2022-10-07T14:05:27.952Z,19.28
2022-10-07T14:07:58.435Z,19.30
2022-10-07T14:10:29.429Z,19.32
2022-10-07T14:13:00.711Z,19.34
2022-10-07T14:15:29.452Z,19.36
2022-10-07T14:17:58.760Z,19.38
2022-10-07T14:20:26.866Z,19.38
2022-10-07T14:22:55.260Z,19.40
2022-10-07T14:25:53.443Z,19.41
2022-10-07T14:28:28.473Z,19.43
2022-10-07T14:31:43.453Z,19.44
2022-10-07T14:34:36.453Z,19.45
2022-10-07T14:37:13.984Z,19.45
2022-10-07T14:39:45.396Z,19.47
2022-10-07T14:42:14.573Z,19.47
2022-10-07T14:44:44.411Z,19.47
2022-10-07T14:47:21.365Z,19.46
2022-10-07T14:49:48.890Z,19.47
2022-10-07T14:52:21.520Z,19.47
2022-10-07T14:54:49.087Z,19.48
2022-10-07T14:57:15.993Z,19.47
2022-10-07T14:59:42.898Z,19.47
2022-10-07T15:02:12.675Z,19.48
2022-10-07T15:04:40.462Z,19.50
2022-10-07T15:07:07.496Z,19.53
2022-10-07T15:09:34.457Z,19.53
2022-10-07T15:12:01.370Z,19.55
2022-10-07T15:14:28.500Z,19.57
2022-10-07T15:16:55.543Z,19.58
2022-10-07T15:19:23.069Z,19.60
2022-10-07T15:21:50.012Z,19.60
2022-10-07T15:24:17.063Z,19.61
2022-10-07T15:26:44.113Z,19.61
2022-10-07T15:29:13.553Z,19.60
2022-10-07T15:31:40.573Z,19.60
2022-10-07T15:34:07.944Z,19.60
2022-10-07T15:36:34.978Z,19.60
2022-10-07T15:39:02.382Z,19.59
2022-10-07T15:41:36.262Z,19.60
2022-10-07T15:44:06.206Z,19.59
2022-10-07T15:46:33.695Z,19.58
2022-10-07T15:49:00.774Z,19.57
2022-10-07T15:51:27.884Z,19.58
2022-10-07T15:53:54.921Z,19.56
2022-10-07T15:56:21.992Z,19.56
2022-10-07T15:58:48.975Z,19.54
2022-10-07T16:01:16.022Z,19.53
2022-10-07T16:03:44.760Z,19.53
2022-10-07T16:06:16.419Z,19.54
2022-10-07T16:08:43.710Z,19.53
2022-10-07T16:11:11.506Z,19.54
2022-10-07T16:13:39.519Z,19.55
2022-10-07T16:16:08.941Z,19.53
2022-10-07T16:18:37.386Z,19.54
2022-10-07T16:21:23.058Z,19.53
2022-10-07T16:23:51.380Z,19.52
2022-10-07T16:26:20.981Z,19.53
2022-10-07T16:29:08.157Z,19.52
2022-10-07T16:31:36.694Z,19.51
2022-10-07T16:34:03.900Z,19.51
2022-10-07T16:36:30.982Z,19.50
2022-10-07T16:38:59.977Z,19.50
2022-10-07T16:41:26.914Z,19.49
2022-10-07T16:43:53.874Z,19.48
2022-10-07T16:46:21.142Z,19.48
2022-10-07T16:48:49.020Z,19.47
2022-10-07T16:51:23.412Z,19.47
2022-10-07T16:53:53.413Z,19.47
2022-10-07T16:56:20.806Z,19.47
2022-10-07T16:58:47.931Z,19.46
2022-10-07T17:01:16.337Z,19.47
2022-10-07T17:03:46.448Z,19.47
2022-10-07T17:06:18.251Z,19.48
2022-10-07T17:08:48.342Z,19.47
2022-10-07T17:11:31.483Z,19.44
2022-10-07T17:14:05.644Z,19.42
2022-10-07T17:16:38.052Z,19.38
2022-10-07T17:19:06.604Z,19.38
2022-10-07T17:21:36.937Z,19.38
2022-10-07T17:24:04.672Z,19.37
2022-10-07T17:26:31.649Z,19.35
2022-10-07T17:29:03.580Z,19.36
2022-10-07T17:31:30.949Z,19.36
2022-10-07T17:33:58.567Z,19.35
2022-10-07T17:36:26.101Z,19.36
2022-10-07T17:38:53.274Z,19.41
2022-10-07T17:41:25.115Z,19.47
2022-10-07T17:43:53.086Z,19.52
2022-10-07T17:46:20.972Z,19.55
2022-10-07T17:48:49.058Z,19.56
2022-10-07T17:51:16.715Z,19.57
2022-10-07T17:53:43.969Z,19.55
2022-10-07T17:56:12.944Z,19.57
2022-10-07T17:58:41.014Z,19.55
2022-10-07T18:01:10.026Z,19.55
2022-10-07T18:03:40.576Z,19.54
2022-10-07T18:06:08.181Z,19.53
2022-10-07T18:08:35.771Z,19.53
2022-10-07T18:11:03.187Z,19.51
2022-10-07T18:13:51.993Z,19.51
2022-10-07T18:16:20.091Z,19.49
2022-10-07T18:18:47.859Z,19.48
2022-10-07T18:21:14.933Z,19.47
2022-10-07T18:23:42.558Z,19.47
2022-10-07T18:26:10.715Z,19.46
2022-10-07T18:28:57.831Z,19.45
2022-10-07T18:31:24.871Z,19.44
2022-10-07T18:33:51.892Z,19.43
2022-10-07T18:36:19.612Z,19.43
2022-10-07T18:38:46.745Z,19.42
2022-10-07T18:41:15.102Z,19.41
2022-10-07T18:43:42.664Z,19.41
2022-10-07T18:46:11.670Z,19.40
2022-10-07T18:48:39.872Z,19.40
2022-10-07T18:51:07.189Z,19.37
2022-10-07T18:53:37.761Z,19.36
2022-10-07T18:56:06.645Z,19.36
2022-10-07T18:58:38.097Z,19.36
2022-10-07T19:01:12.190Z,19.34
2022-10-07T19:03:39.380Z,19.34
2022-10-07T19:06:07.452Z,19.33
2022-10-07T19:08:34.501Z,19.33
2022-10-07T19:11:05.831Z,19.32
2022-10-07T19:13:48.618Z,19.32
2022-10-07T19:16:19.685Z,19.33
2022-10-07T19:18:47.764Z,19.31
2022-10-07T19:21:15.515Z,19.31
2022-10-07T19:23:42.533Z,19.30
2022-10-07T19:26:09.669Z,19.29
2022-10-07T19:28:37.515Z,19.29
2022-10-07T19:31:18.259Z,19.28
2022-10-07T19:33:46.329Z,19.27
2022-10-07T19:36:14.087Z,19.27
2022-10-07T19:38:45.011Z,19.27
2022-10-07T19:41:15.572Z,19.24
2022-10-07T19:43:43.106Z,19.26
2022-10-07T19:46:10.303Z,19.25
2022-10-07T19:48:37.539Z,19.23
2022-10-07T19:51:06.343Z,19.23
2022-10-07T19:53:34.272Z,19.25
2022-10-07T19:56:02.441Z,19.23
2022-10-07T19:58:31.866Z,19.23
2022-10-07T20:01:09.479Z,19.22
2022-10-07T20:03:37.304Z,19.22
2022-10-07T20:06:11.506Z,19.23
2022-10-07T20:08:39.912Z,19.22
2022-10-07T20:11:07.040Z,19.22
2022-10-07T20:13:35.182Z,19.20
2022-10-07T20:16:16.474Z,19.22
2022-10-07T20:18:44.280Z,19.20
2022-10-07T20:21:16.276Z,19.20
2022-10-07T20:23:45.112Z,19.20
2022-10-07T20:26:16.270Z,19.18
2022-10-07T20:28:43.299Z,19.17
2022-10-07T20:31:11.594Z,19.17
2022-10-07T20:33:45.787Z,19.14
2022-10-07T20:36:14.207Z,19.13
2022-10-07T20:38:59.814Z,19.12
2022-10-07T20:41:45.253Z,19.10
2022-10-07T20:44:12.888Z,19.08
2022-10-07T20:46:40.198Z,19.07
2022-10-07T20:49:25.091Z,19.08
2022-10-07T20:51:53.611Z,19.09
2022-10-07T20:54:21.678Z,19.08
2022-10-07T20:56:49.177Z,19.08
2022-10-07T20:59:16.135Z,19.08
2022-10-07T21:01:43.234Z,19.05
2022-10-07T21:04:11.526Z,19.03
2022-10-07T21:06:39.810Z,19.03
2022-10-07T21:09:07.042Z,19.01
2022-10-07T21:11:34.041Z,19.00
2022-10-07T21:14:00.983Z,18.99
2022-10-07T21:16:29.483Z,18.97
2022-10-07T21:18:57.041Z,18.97
2022-10-07T21:21:24.511Z,18.94
2022-10-07T21:23:51.826Z,18.93
2022-10-07T21:26:19.010Z,18.93
2022-10-07T21:28:48.545Z,18.93
2022-10-07T21:31:17.664Z,18.92
2022-10-07T21:33:50.864Z,18.92
2022-10-07T21:36:22.304Z,18.92
2022-10-07T21:38:59.233Z,18.92
2022-10-07T21:41:34.631Z,18.91
2022-10-07T21:44:03.013Z,18.91
2022-10-07T21:46:30.994Z,18.89
2022-10-07T21:48:58.210Z,18.88
2022-10-07T21:51:27.279Z,18.87
2022-10-07T21:53:54.830Z,18.86
2022-10-07T21:56:21.902Z,18.85
2022-10-07T21:58:53.416Z,18.85
2022-10-07T22:01:22.333Z,18.83
2022-10-07T22:03:53.696Z,18.84
2022-10-07T22:06:20.733Z,18.82
2022-10-07T22:08:47.611Z,18.82
2022-10-07T22:11:18.701Z,18.81
2022-10-07T22:13:55.318Z,18.82
2022-10-07T22:16:22.868Z,18.81
2022-10-07T22:18:52.015Z,18.81
2022-10-07T22:21:23.935Z,18.80
2022-10-07T22:23:52.653Z,18.80
2022-10-07T22:26:21.341Z,18.81
2022-10-07T22:28:48.302Z,18.80
2022-10-07T22:31:15.836Z,18.79
2022-10-07T22:33:43.450Z,18.77
2022-10-07T22:36:11.991Z,18.77
2022-10-07T22:38:41.162Z,18.77
2022-10-07T22:41:12.596Z,18.75
2022-10-07T22:43:39.809Z,18.75
2022-10-07T22:46:06.948Z,18.73
2022-10-07T22:48:34.380Z,18.73
2022-10-07T22:51:08.757Z,18.71
2022-10-07T22:53:36.382Z,18.72
2022-10-07T22:56:08.045Z,18.70
2022-10-07T22:58:35.027Z,18.70
2022-10-07T23:01:05.728Z,18.69
2022-10-07T23:03:33.012Z,18.68
2022-10-07T23:06:00.442Z,18.70
2022-10-07T23:08:27.472Z,18.69
2022-10-07T23:10:57.996Z,18.68
2022-10-07T23:13:27.990Z,18.68
2022-10-07T23:16:04.683Z,18.66
2022-10-07T23:18:32.348Z,18.67
2022-10-07T23:20:59.979Z,18.66
2022-10-07T23:23:27.473Z,18.66
2022-10-07T23:25:54.459Z,18.64
2022-10-07T23:28:22.293Z,18.64
2022-10-07T23:30:49.497Z,18.64
2022-10-07T23:33:16.895Z,18.62
2022-10-07T23:35:43.872Z,18.61
2022-10-07T23:38:10.835Z,18.60
2022-10-07T23:40:37.795Z,18.60
2022-10-07T23:43:04.722Z,18.59
2022-10-07T23:45:33.406Z,18.57
2022-10-07T23:48:00.544Z,18.57
2022-10-07T23:50:28.060Z,18.58
2022-10-07T23:52:55.125Z,18.57
2022-10-07T23:55:22.120Z,18.59
2022-10-07T23:57:49.395Z,18.57
